createdAt,value
2019-01-23T00:00:48.355Z,123.00
2019-01-23T00:01:48.345Z,127.00
2019-01-23T00:02:48.346Z,122.80
2019-01-23T00:03:48.323Z,127.10
2019-01-23T00:04:48.317Z,132.40
2019-01-23T00:05:48.309Z,122.60
2019-01-23T00:06:48.291Z,125.00
2019-01-23T00:07:48.295Z,121.70
2019-01-23T00:08:48.273Z,122.50
2019-01-23T00:09:48.262Z,125.90
2019-01-23T00:10:48.264Z,118.20
2019-01-23T00:11:48.251Z,120.60
2019-01-23T00:12:48.239Z,124.20
2019-01-23T00:13:48.221Z,122.80
2019-01-23T00:14:48.213Z,120.40
2019-01-23T00:15:48.203Z,121.20
2019-01-23T00:16:48.198Z,123.10
2019-01-23T00:17:48.192Z,114.70
2019-01-23T00:18:48.175Z,124.10
2019-01-23T00:19:48.166Z,120.50
2019-01-23T00:20:48.148Z,117.80
2019-01-23T00:21:48.166Z,119.30
2019-01-23T00:22:48.140Z,109.70
2019-01-23T00:23:48.122Z,121.50
2019-01-23T00:24:48.109Z,114.60
2019-01-23T00:25:48.122Z,118.10
2019-01-23T00:26:48.089Z,117.20
2019-01-23T00:27:48.088Z,121.20
2019-01-23T00:28:48.069Z,117.10
2019-01-23T00:29:48.056Z,120.60
2019-01-23T00:30:48.046Z,120.80
2019-01-23T00:31:48.050Z,117.20
2019-01-23T00:32:48.052Z,114.40
2019-01-23T00:33:48.017Z,114.20
2019-01-23T00:34:48.008Z,114.10
2019-01-23T00:35:47.999Z,116.80
2019-01-23T00:36:47.988Z,111.20
2019-01-23T00:37:47.994Z,113.50
2019-01-23T00:38:47.971Z,110.90
2019-01-23T00:39:47.954Z,112.30
2019-01-23T00:40:47.944Z,112.70
2019-01-23T00:41:47.940Z,110.80
2019-01-23T00:42:47.951Z,115.20
2019-01-23T00:43:47.918Z,113.20
2019-01-23T00:44:47.909Z,109.70
2019-01-23T00:45:47.893Z,114.20
2019-01-23T00:46:47.884Z,112.90
2019-01-23T00:47:47.888Z,114.50
2019-01-23T00:48:47.872Z,108.30
2019-01-23T00:49:47.855Z,120.90
2019-01-23T00:50:47.850Z,111.20
2019-01-23T00:51:47.837Z,116.10
2019-01-23T00:52:47.833Z,108.80
2019-01-23T00:53:47.823Z,111.30
2019-01-23T00:54:47.802Z,113.30
2019-01-23T00:55:47.803Z,114.50
2019-01-23T00:56:47.781Z,115.90
2019-01-23T00:57:47.785Z,112.00
2019-01-23T00:58:49.313Z,111.50
2019-01-23T00:59:47.754Z,114.40
2019-01-23T01:00:47.744Z,110.30
2019-01-23T01:01:47.730Z,112.30
2019-01-23T01:02:47.735Z,117.50
2019-01-23T01:03:47.711Z,112.90
2019-01-23T01:04:47.702Z,109.80
2019-01-23T01:05:47.690Z,109.00
2019-01-23T01:06:48.405Z,106.40
2019-01-23T01:07:47.844Z,107.70
2019-01-23T01:08:47.681Z,110.20
2019-01-23T01:09:47.648Z,111.20
2019-01-23T01:10:47.644Z,104.70
2019-01-23T01:11:47.628Z,112.50
2019-01-23T01:12:47.630Z,108.30
2019-01-23T01:13:47.608Z,111.20
2019-01-23T01:14:47.623Z,107.40
2019-01-23T01:15:47.591Z,102.20
2019-01-23T01:16:47.578Z,107.00
2019-01-23T01:17:47.577Z,100.50
2019-01-23T01:18:47.575Z,106.10
2019-01-23T01:19:47.571Z,103.00
2019-01-23T01:20:47.538Z,106.60
2019-01-23T01:21:47.526Z,107.00
2019-01-23T01:22:47.525Z,102.90
2019-01-23T01:23:47.506Z,111.80
2019-01-23T01:24:47.519Z,101.50
2019-01-23T01:25:47.484Z,102.30
2019-01-23T01:26:47.476Z,98.50
2019-01-23T01:27:47.847Z,104.90
2019-01-23T01:28:47.464Z,98.60
2019-01-23T01:29:47.442Z,101.30
2019-01-23T01:30:47.436Z,98.70
2019-01-23T01:31:47.426Z,98.60
2019-01-23T01:32:47.447Z,97.40
2019-01-23T01:33:47.402Z,102.70
2019-01-23T01:34:47.392Z,103.00
2019-01-23T01:35:47.384Z,99.70
2019-01-23T01:36:47.371Z,102.00
2019-01-23T01:37:47.363Z,101.70
2019-01-23T01:38:47.364Z,101.80
2019-01-23T01:39:47.342Z,103.00
2019-01-23T01:40:47.331Z,107.20
2019-01-23T01:41:47.324Z,97.80
2019-01-23T01:42:47.310Z,102.10
2019-01-23T01:43:47.311Z,103.20
2019-01-23T01:44:47.289Z,104.50
2019-01-23T01:45:47.281Z,100.20
2019-01-23T01:46:47.272Z,98.70
2019-01-23T01:47:47.260Z,102.80
2019-01-23T01:48:47.265Z,99.90
2019-01-23T01:49:47.249Z,100.00
2019-01-23T01:50:47.227Z,100.90
2019-01-23T01:51:47.219Z,103.00
2019-01-23T01:52:47.211Z,101.50
2019-01-23T01:53:47.209Z,97.60
2019-01-23T01:54:47.193Z,102.40
2019-01-23T01:55:47.182Z,103.50
2019-01-23T01:56:47.167Z,100.70
2019-01-23T01:57:47.159Z,100.60
2019-01-23T01:58:47.164Z,101.80
2019-01-23T01:59:47.143Z,102.50
2019-01-23T02:00:47.127Z,102.50
2019-01-23T02:01:47.119Z,103.50
2019-01-23T02:02:47.109Z,101.90
2019-01-23T02:03:47.106Z,101.60
2019-01-23T02:04:47.088Z,103.10
2019-01-23T02:05:47.079Z,99.30
2019-01-23T02:06:47.064Z,102.90
2019-01-23T02:07:47.068Z,104.90
2019-01-23T02:08:47.055Z,105.60
2019-01-23T02:09:47.034Z,95.60
2019-01-23T02:10:47.030Z,103.80
2019-01-23T02:11:47.018Z,103.20
2019-01-23T02:12:47.004Z,100.70
2019-01-23T02:13:47.014Z,100.50
2019-01-23T02:14:46.983Z,104.20
2019-01-23T02:15:46.974Z,100.30
2019-01-23T02:16:46.966Z,102.40
2019-01-23T02:17:46.969Z,102.00
2019-01-23T02:18:46.953Z,100.50
2019-01-23T02:19:46.934Z,101.50
2019-01-23T02:20:46.930Z,99.50
2019-01-23T02:21:46.912Z,96.70
2019-01-23T02:22:46.902Z,110.10
2019-01-23T02:23:46.905Z,106.50
2019-01-23T02:24:46.882Z,107.60
2019-01-23T02:25:46.881Z,109.10
2019-01-23T02:26:46.862Z,106.90
2019-01-23T02:27:46.853Z,110.30
2019-01-23T02:28:46.851Z,114.10
2019-01-23T02:29:46.840Z,108.40
2019-01-23T02:30:46.821Z,103.90
2019-01-23T02:31:46.815Z,104.60
2019-01-23T02:32:46.802Z,115.90
2019-01-23T02:33:46.800Z,109.90
2019-01-23T02:34:46.787Z,102.50
2019-01-23T02:35:46.775Z,105.10
2019-01-23T02:36:46.761Z,108.90
2019-01-23T02:37:46.756Z,107.20
2019-01-23T02:38:46.750Z,109.60
2019-01-23T02:39:46.732Z,113.60
2019-01-23T02:40:46.724Z,105.70
2019-01-23T02:41:46.709Z,107.30
2019-01-23T02:42:46.710Z,109.40
2019-01-23T02:43:46.704Z,113.20
2019-01-23T02:44:46.680Z,108.30
2019-01-23T02:45:46.672Z,109.30
2019-01-23T02:46:46.660Z,105.30
2019-01-23T02:47:46.653Z,106.60
2019-01-23T02:48:46.650Z,115.00
2019-01-23T02:49:46.643Z,108.90
2019-01-23T02:50:46.618Z,110.90
2019-01-23T02:51:46.610Z,110.80
2019-01-23T02:52:46.605Z,115.20
2019-01-23T02:53:46.607Z,106.90
2019-01-23T02:54:46.585Z,110.60
2019-01-23T02:55:46.570Z,110.50
2019-01-23T02:56:46.555Z,112.40
2019-01-23T02:57:46.554Z,113.30
2019-01-23T02:58:46.548Z,106.40
2019-01-23T02:59:46.529Z,111.70
2019-01-23T03:00:46.547Z,107.70
2019-01-23T03:01:46.516Z,111.90
2019-01-23T03:02:46.512Z,117.40
2019-01-23T03:03:46.514Z,115.70
2019-01-23T03:04:46.487Z,113.80
2019-01-23T03:05:46.476Z,112.90
2019-01-23T03:06:46.456Z,111.70
2019-01-23T03:07:46.449Z,108.90
2019-01-23T03:08:46.449Z,117.60
2019-01-23T03:09:46.424Z,112.00
2019-01-23T03:10:46.417Z,114.50
2019-01-23T03:11:46.403Z,111.90
2019-01-23T03:12:46.396Z,120.60
2019-01-23T03:13:46.403Z,112.70
2019-01-23T03:14:46.378Z,118.00
2019-01-23T03:15:46.364Z,120.10
2019-01-23T03:16:46.372Z,117.20
2019-01-23T03:17:46.346Z,119.70
2019-01-23T03:18:46.431Z,120.80
2019-01-23T03:19:46.334Z,113.70
2019-01-23T03:20:46.318Z,119.50
2019-01-23T03:21:46.303Z,122.60
2019-01-23T03:22:46.297Z,111.90
2019-01-23T03:23:46.298Z,112.20
2019-01-23T03:24:46.275Z,109.50
2019-01-23T03:25:46.264Z,124.10
2019-01-23T03:26:46.275Z,121.80
2019-01-23T03:27:46.246Z,117.50
2019-01-23T03:28:46.243Z,112.20
2019-01-23T03:29:46.224Z,116.20
2019-01-23T03:30:46.222Z,119.40
2019-01-23T03:31:46.207Z,120.10
2019-01-23T03:32:46.206Z,126.20
2019-01-23T03:33:46.196Z,116.90
2019-01-23T03:34:46.171Z,125.00
2019-01-23T03:35:46.167Z,116.80
2019-01-23T03:36:46.155Z,119.00
2019-01-23T03:37:46.177Z,122.80
2019-01-23T03:38:46.152Z,120.60
2019-01-23T03:39:46.131Z,120.10
2019-01-23T03:40:46.111Z,114.90
2019-01-23T03:41:46.101Z,120.20
2019-01-23T03:42:46.101Z,117.10
2019-01-23T03:43:46.087Z,116.60
2019-01-23T03:44:46.067Z,121.20
2019-01-23T03:45:46.057Z,119.70
2019-01-23T03:46:46.051Z,122.40
2019-01-23T03:47:46.038Z,113.90
2019-01-23T03:48:46.058Z,121.00
2019-01-23T03:49:46.024Z,127.20
2019-01-23T03:50:46.020Z,118.90
2019-01-23T03:51:45.996Z,130.20
2019-01-23T03:52:46.004Z,121.80
2019-01-23T03:53:45.993Z,129.70
2019-01-23T03:54:45.971Z,123.10
2019-01-23T03:55:45.972Z,122.40
2019-01-23T03:56:45.947Z,124.90
2019-01-23T03:57:45.937Z,127.20
2019-01-23T03:58:45.935Z,124.70
2019-01-23T03:59:45.914Z,128.10
2019-01-23T04:00:45.907Z,124.20
2019-01-23T04:01:45.896Z,129.60
2019-01-23T04:02:45.887Z,123.80
2019-01-23T04:03:45.886Z,128.50
2019-01-23T04:04:45.868Z,125.80
2019-01-23T04:05:45.864Z,125.40
2019-01-23T04:06:45.882Z,123.80
2019-01-23T04:07:45.833Z,126.80
2019-01-23T04:08:45.847Z,124.20
2019-01-23T04:09:45.814Z,122.60
2019-01-23T04:10:45.803Z,124.20
2019-01-23T04:11:45.790Z,127.00
2019-01-23T04:12:45.783Z,124.90
2019-01-23T04:13:45.788Z,126.00
2019-01-23T04:14:45.764Z,120.20
2019-01-23T04:15:45.762Z,126.60
2019-01-23T04:16:45.741Z,127.80
2019-01-23T04:17:45.733Z,124.80
2019-01-23T04:18:45.922Z,130.90
2019-01-23T04:19:45.724Z,125.60
2019-01-23T04:20:45.704Z,135.30
2019-01-23T04:21:45.690Z,135.10
2019-01-23T04:22:45.681Z,133.00
2019-01-23T04:23:45.682Z,129.60
2019-01-23T04:24:45.675Z,128.00
2019-01-23T04:25:45.657Z,129.10
2019-01-23T04:26:45.645Z,124.60
2019-01-23T04:27:45.634Z,130.80
2019-01-23T04:28:45.621Z,130.20
2019-01-23T04:29:45.624Z,130.10
2019-01-23T04:30:45.605Z,120.90
2019-01-23T04:31:45.591Z,131.50
2019-01-23T04:32:45.587Z,130.00
2019-01-23T04:33:45.569Z,127.00
2019-01-23T04:34:45.576Z,118.30
2019-01-23T04:35:45.549Z,128.20
2019-01-23T04:36:45.540Z,133.20
2019-01-23T04:37:45.544Z,128.50
2019-01-23T04:38:45.518Z,136.20
2019-01-23T04:39:45.524Z,133.80
2019-01-23T04:40:45.501Z,129.40
2019-01-23T04:41:45.495Z,131.90
2019-01-23T04:42:45.480Z,134.70
2019-01-23T04:43:45.469Z,131.90
2019-01-23T04:44:45.467Z,134.10
2019-01-23T04:45:45.464Z,140.30
2019-01-23T04:46:45.438Z,136.30
2019-01-23T04:47:45.437Z,137.10
2019-01-23T04:48:45.424Z,132.40
2019-01-23T04:49:45.418Z,124.60
2019-01-23T04:50:45.397Z,124.20
2019-01-23T04:51:45.407Z,130.00
2019-01-23T04:52:45.376Z,126.70
2019-01-23T04:53:45.374Z,123.00
2019-01-23T04:54:45.366Z,120.60
2019-01-23T04:55:45.347Z,131.50
2019-01-23T04:56:45.335Z,131.00
2019-01-23T04:57:45.337Z,126.50
2019-01-23T04:58:45.328Z,131.10
2019-01-23T04:59:46.877Z,124.50
2019-01-23T05:00:45.312Z,129.30
2019-01-23T05:01:45.318Z,129.10
2019-01-23T05:02:45.281Z,131.30
2019-01-23T05:03:45.282Z,124.20
2019-01-23T05:04:45.276Z,133.70
2019-01-23T05:05:45.252Z,132.30
2019-01-23T05:06:45.243Z,129.50
2019-01-23T05:07:45.227Z,131.30
2019-01-23T05:08:45.252Z,123.90
2019-01-23T05:09:45.264Z,127.50
2019-01-23T05:10:45.198Z,133.50
2019-01-23T05:11:45.184Z,135.00
2019-01-23T05:12:45.175Z,132.50
2019-01-23T05:13:45.165Z,133.50
2019-01-23T05:14:45.170Z,137.80
2019-01-23T05:15:45.164Z,129.40
2019-01-23T05:16:45.139Z,124.30
2019-01-23T05:17:45.125Z,135.50
2019-01-23T05:18:45.113Z,130.00
2019-01-23T05:19:45.116Z,129.50
2019-01-23T05:20:45.106Z,126.40
2019-01-23T05:21:45.085Z,133.40
2019-01-23T05:22:45.072Z,126.90
2019-01-23T05:23:45.065Z,132.50
2019-01-23T05:24:45.078Z,139.20
2019-01-23T05:25:45.041Z,136.40
2019-01-23T05:26:45.032Z,125.20
2019-01-23T05:27:45.030Z,131.30
2019-01-23T05:28:45.015Z,132.60
2019-01-23T05:29:45.017Z,132.60
2019-01-23T05:30:44.991Z,127.90
2019-01-23T05:31:44.995Z,137.60
2019-01-23T05:32:44.972Z,132.00
2019-01-23T05:33:44.966Z,128.60
2019-01-23T05:34:44.957Z,128.50
2019-01-23T05:35:44.940Z,138.40
2019-01-23T05:36:44.931Z,134.00
2019-01-23T05:37:44.941Z,137.80
2019-01-23T05:38:44.923Z,137.30
2019-01-23T05:39:45.072Z,138.20
2019-01-23T05:40:44.900Z,135.60
2019-01-23T05:41:44.904Z,141.10
2019-01-23T05:42:44.871Z,138.00
2019-01-23T05:43:44.858Z,142.10
2019-01-23T05:44:44.853Z,141.00
2019-01-23T05:45:44.854Z,137.00
2019-01-23T05:46:44.839Z,141.20
2019-01-23T05:47:44.818Z,140.20
2019-01-23T05:48:44.810Z,140.00
2019-01-23T05:49:44.799Z,133.20
2019-01-23T05:50:44.800Z,141.00
2019-01-23T05:51:44.782Z,135.50
2019-01-23T05:52:44.792Z,133.30
2019-01-23T05:53:44.763Z,131.10
2019-01-23T05:54:44.747Z,137.00
2019-01-23T05:55:44.756Z,137.50
2019-01-23T05:56:44.735Z,130.10
2019-01-23T05:57:44.728Z,139.10
2019-01-23T05:58:44.728Z,135.20
2019-01-23T05:59:44.712Z,134.60
2019-01-23T06:00:44.705Z,134.00
2019-01-23T06:01:44.706Z,135.10
2019-01-23T06:02:44.688Z,138.10
2019-01-23T06:03:44.662Z,133.40
2019-01-23T06:04:44.662Z,136.80
2019-01-23T06:05:44.646Z,136.40
2019-01-23T06:06:44.645Z,133.40
2019-01-23T06:07:44.616Z,134.70
2019-01-23T06:08:44.610Z,135.80
2019-01-23T06:09:44.601Z,124.40
2019-01-23T06:10:44.626Z,127.60
2019-01-23T06:11:44.575Z,131.30
2019-01-23T06:12:44.570Z,133.30
2019-01-23T06:13:44.561Z,136.10
2019-01-23T06:14:44.554Z,133.00
2019-01-23T06:15:44.552Z,135.70
2019-01-23T06:16:44.535Z,140.60
2019-01-23T06:17:44.575Z,130.00
2019-01-23T06:18:44.509Z,138.60
2019-01-23T06:19:44.510Z,137.00
2019-01-23T06:20:44.505Z,135.60
2019-01-23T06:21:44.482Z,135.20
2019-01-23T06:22:44.472Z,134.10
2019-01-23T06:23:44.470Z,126.00
2019-01-23T06:24:44.455Z,131.90
2019-01-23T06:25:44.462Z,131.20
2019-01-23T06:26:44.426Z,139.30
2019-01-23T06:27:44.423Z,136.60
2019-01-23T06:28:44.413Z,134.50
2019-01-23T06:29:44.400Z,136.80
2019-01-23T06:30:44.404Z,138.20
2019-01-23T06:31:44.387Z,132.10
2019-01-23T06:32:44.378Z,136.50
2019-01-23T06:33:44.361Z,138.00
2019-01-23T06:34:44.346Z,136.50
2019-01-23T06:35:44.343Z,143.00
2019-01-23T06:36:44.351Z,144.90
2019-01-23T06:37:44.355Z,138.10
2019-01-23T06:38:44.308Z,147.10
2019-01-23T06:39:44.302Z,141.90
2019-01-23T06:40:44.333Z,141.00
2019-01-23T06:41:44.273Z,140.50
2019-01-23T06:42:44.266Z,144.90
2019-01-23T06:43:44.277Z,146.80
2019-01-23T06:44:44.254Z,137.40
2019-01-23T06:45:44.248Z,142.30
2019-01-23T06:46:44.224Z,141.70
2019-01-23T06:47:44.211Z,146.20
2019-01-23T06:48:44.196Z,141.30
2019-01-23T06:49:44.187Z,147.30
2019-01-23T06:50:44.187Z,149.00
2019-01-23T06:51:44.165Z,143.60
2019-01-23T06:52:44.158Z,151.90
2019-01-23T06:53:44.163Z,142.20
2019-01-23T06:54:44.136Z,146.70
2019-01-23T06:55:44.140Z,157.10
2019-01-23T06:56:44.134Z,145.70
2019-01-23T06:57:44.117Z,150.80
2019-01-23T06:58:44.105Z,151.30
2019-01-23T06:59:44.094Z,151.40
2019-01-23T07:00:44.093Z,152.10
2019-01-23T07:01:44.067Z,152.20
2019-01-23T07:02:44.058Z,141.20
2019-01-23T07:03:44.055Z,147.40
2019-01-23T07:04:44.037Z,154.60
2019-01-23T07:05:44.038Z,159.40
2019-01-23T07:06:44.018Z,155.00
2019-01-23T07:07:44.008Z,155.00
2019-01-23T07:08:43.997Z,154.90
2019-01-23T07:09:43.986Z,152.60
2019-01-23T07:10:43.985Z,148.40
2019-01-23T07:11:43.979Z,155.10
2019-01-23T07:12:43.953Z,154.30
2019-01-23T07:13:43.946Z,154.10
2019-01-23T07:14:43.936Z,161.90
2019-01-23T07:15:43.936Z,158.80
2019-01-23T07:16:43.931Z,164.10
2019-01-23T07:17:43.907Z,166.00
2019-01-23T07:18:43.898Z,165.40
2019-01-23T07:19:43.885Z,163.60
2019-01-23T07:20:43.887Z,163.70
2019-01-23T07:21:43.868Z,165.20
2019-01-23T07:22:43.854Z,165.70
2019-01-23T07:23:43.843Z,168.60
2019-01-23T07:24:43.840Z,170.60
2019-01-23T07:25:43.846Z,170.10
2019-01-23T07:26:43.812Z,169.60
2019-01-23T07:27:43.808Z,171.70
2019-01-23T07:28:49.210Z,178.50
2019-01-23T07:29:44.777Z,169.90
2019-01-23T07:30:43.786Z,179.00
2019-01-23T07:31:43.763Z,178.00
2019-01-23T07:32:43.918Z,176.30
2019-01-23T07:33:43.750Z,179.60
2019-01-23T07:34:43.752Z,181.40
2019-01-23T07:35:43.755Z,175.90
2019-01-23T07:36:43.730Z,170.50
2019-01-23T07:37:43.706Z,170.10
2019-01-23T07:38:43.694Z,183.10
2019-01-23T07:39:43.685Z,178.80
2019-01-23T07:40:43.716Z,172.80
2019-01-23T07:41:43.663Z,177.70
2019-01-23T07:42:43.653Z,181.00
2019-01-23T07:43:43.642Z,190.90
2019-01-23T07:44:43.631Z,183.90
2019-01-23T07:45:43.642Z,181.70
2019-01-23T07:46:43.629Z,185.80
2019-01-23T07:47:43.605Z,187.50
2019-01-23T07:48:43.590Z,178.70
2019-01-23T07:49:43.602Z,183.30
2019-01-23T07:50:43.568Z,192.80
2019-01-23T07:51:43.572Z,193.70
2019-01-23T07:52:43.554Z,189.40
2019-01-23T07:53:43.539Z,191.00
2019-01-23T07:54:43.590Z,186.10
2019-01-23T07:55:43.532Z,190.30
2019-01-23T07:56:43.522Z,186.50
2019-01-23T07:57:43.509Z,189.80
2019-01-23T07:58:43.487Z,188.90
2019-01-23T07:59:43.476Z,204.40
2019-01-23T08:00:43.464Z,200.50
2019-01-23T08:01:43.476Z,200.20
2019-01-23T08:02:43.444Z,206.90
2019-01-23T08:03:43.455Z,197.80
2019-01-23T08:04:43.426Z,197.80
2019-01-23T08:05:43.419Z,202.90
2019-01-23T08:06:43.430Z,204.80
2019-01-23T08:07:43.394Z,217.00
2019-01-23T08:08:43.380Z,203.70
2019-01-23T08:09:43.373Z,204.90
2019-01-23T08:10:43.361Z,195.80
2019-01-23T08:11:43.368Z,208.90
2019-01-23T08:12:43.340Z,203.50
2019-01-23T08:13:43.379Z,213.60
2019-01-23T08:14:43.320Z,204.50
2019-01-23T08:15:43.311Z,213.80
2019-01-23T08:16:43.312Z,212.60
2019-01-23T08:17:43.296Z,213.90
2019-01-23T08:18:43.285Z,211.50
2019-01-23T08:19:43.275Z,213.50
2019-01-23T08:20:43.257Z,214.70
2019-01-23T08:21:43.344Z,216.00
2019-01-23T08:22:43.237Z,214.60
2019-01-23T08:23:43.228Z,220.70
2019-01-23T08:24:43.216Z,226.90
2019-01-23T08:25:43.226Z,219.50
2019-01-23T08:26:43.207Z,225.50
2019-01-23T08:27:43.205Z,222.80
2019-01-23T08:28:43.177Z,226.80
2019-01-23T08:29:43.167Z,226.30
2019-01-23T08:30:43.156Z,217.30
2019-01-23T08:31:43.161Z,222.60
2019-01-23T08:32:43.149Z,238.40
2019-01-23T08:33:43.143Z,236.10
2019-01-23T08:34:43.113Z,225.10
2019-01-23T08:35:43.106Z,230.30
2019-01-23T08:36:43.115Z,242.10
2019-01-23T08:37:43.085Z,230.00
2019-01-23T08:38:43.075Z,230.10
2019-01-23T08:39:43.066Z,236.40
2019-01-23T08:40:43.057Z,227.40
2019-01-23T08:41:43.351Z,235.10
2019-01-23T08:42:43.035Z,234.00
2019-01-23T08:43:43.042Z,231.70
2019-01-23T08:44:43.016Z,232.30
2019-01-23T08:45:43.010Z,241.00
2019-01-23T08:46:43.005Z,241.20
2019-01-23T08:47:42.983Z,247.30
2019-01-23T08:48:42.979Z,238.00
2019-01-23T08:49:42.972Z,241.20
2019-01-23T08:50:42.959Z,233.10
2019-01-23T08:51:42.963Z,241.40
2019-01-23T08:52:42.935Z,239.90
2019-01-23T08:53:42.923Z,247.40
2019-01-23T08:54:42.911Z,243.20
2019-01-23T08:55:42.913Z,236.40
2019-01-23T08:56:42.904Z,239.20
2019-01-23T08:57:42.883Z,246.50
2019-01-23T08:58:42.924Z,238.50
2019-01-23T08:59:42.861Z,231.60
2019-01-23T09:00:45.951Z,239.50
2019-01-23T09:01:42.856Z,245.00
2019-01-23T09:02:42.831Z,236.40
2019-01-23T09:03:42.818Z,240.40
2019-01-23T09:04:42.810Z,239.90
2019-01-23T09:05:42.798Z,253.80
2019-01-23T09:06:42.798Z,256.20
2019-01-23T09:07:42.791Z,249.30
2019-01-23T09:08:42.767Z,240.60
2019-01-23T09:09:42.758Z,246.40
2019-01-23T09:10:42.751Z,243.20
2019-01-23T09:11:42.752Z,241.50
2019-01-23T09:12:42.730Z,235.50
2019-01-23T09:13:42.719Z,248.70
2019-01-23T09:14:42.707Z,245.20
2019-01-23T09:15:42.698Z,253.40
2019-01-23T09:16:42.700Z,248.60
2019-01-23T09:17:42.678Z,247.60
2019-01-23T09:18:42.666Z,243.40
2019-01-23T09:19:42.659Z,259.50
2019-01-23T09:20:42.656Z,243.30
2019-01-23T09:21:42.651Z,254.10
2019-01-23T09:22:42.624Z,242.90
2019-01-23T09:23:42.624Z,240.40
2019-01-23T09:24:42.619Z,247.50
2019-01-23T09:25:42.598Z,249.40
2019-01-23T09:26:42.605Z,254.00
2019-01-23T09:27:42.576Z,257.20
2019-01-23T09:28:42.567Z,254.00
2019-01-23T09:29:42.566Z,247.20
2019-01-23T09:30:42.549Z,253.80
2019-01-23T09:31:42.549Z,248.40
2019-01-23T09:32:42.532Z,240.60
2019-01-23T09:33:42.557Z,252.70
2019-01-23T09:34:42.508Z,244.50
2019-01-23T09:35:42.495Z,258.10
2019-01-23T09:36:42.497Z,261.50
2019-01-23T09:37:42.490Z,250.70
2019-01-23T09:38:42.467Z,253.60
2019-01-23T09:39:42.454Z,258.90
2019-01-23T09:40:42.441Z,248.00
2019-01-23T09:41:42.447Z,242.40
2019-01-23T09:42:42.430Z,248.10
2019-01-23T09:43:42.438Z,243.00
2019-01-23T09:44:42.409Z,244.70
2019-01-23T09:45:42.391Z,247.10
2019-01-23T09:46:42.426Z,237.80
2019-01-23T09:47:42.373Z,250.00
2019-01-23T09:48:42.367Z,255.30
2019-01-23T09:49:42.353Z,251.20
2019-01-23T09:50:42.342Z,249.50
2019-01-23T09:51:42.331Z,244.20
2019-01-23T09:52:42.331Z,251.80
2019-01-23T09:53:42.349Z,253.20
2019-01-23T09:54:42.303Z,258.20
2019-01-23T09:55:42.291Z,261.60
2019-01-23T09:56:42.278Z,266.20
2019-01-23T09:57:42.278Z,266.80
2019-01-23T09:58:42.258Z,266.80
2019-01-23T09:59:42.249Z,269.90
2019-01-23T10:00:42.240Z,258.70
2019-01-23T10:01:42.232Z,260.80
2019-01-23T10:02:42.235Z,252.10
2019-01-23T10:03:42.210Z,260.30
2019-01-23T10:04:42.204Z,258.20
2019-01-23T10:05:42.186Z,264.10
2019-01-23T10:06:42.180Z,258.70
2019-01-23T10:07:42.182Z,247.50
2019-01-23T10:08:42.156Z,251.20
2019-01-23T10:09:42.149Z,257.90
2019-01-23T10:10:42.140Z,251.20
2019-01-23T10:11:42.124Z,261.10
2019-01-23T10:12:42.166Z,266.20
2019-01-23T10:13:42.108Z,256.40
2019-01-23T10:14:42.100Z,267.50
2019-01-23T10:15:42.085Z,259.50
2019-01-23T10:16:42.073Z,247.60
2019-01-23T10:17:42.063Z,254.50
2019-01-23T10:18:42.069Z,257.20
2019-01-23T10:19:42.043Z,244.00
2019-01-23T10:20:42.034Z,257.00
2019-01-23T10:21:42.022Z,258.70
2019-01-23T10:22:42.011Z,248.70
2019-01-23T10:23:42.071Z,251.60
2019-01-23T10:24:42.012Z,265.90
2019-01-23T10:25:41.985Z,256.20
2019-01-23T10:26:41.974Z,259.10
2019-01-23T10:27:41.983Z,243.30
2019-01-23T10:28:41.961Z,248.80
2019-01-23T10:29:41.948Z,240.30
2019-01-23T10:30:41.929Z,248.30
2019-01-23T10:31:41.938Z,253.70
2019-01-23T10:32:41.908Z,250.90
2019-01-23T10:33:41.907Z,244.70
2019-01-23T10:34:41.889Z,241.90
2019-01-23T10:35:41.908Z,242.70
2019-01-23T10:36:41.867Z,241.90
2019-01-23T10:37:41.862Z,246.40
2019-01-23T10:38:41.866Z,241.20
2019-01-23T10:39:41.839Z,248.80
2019-01-23T10:40:41.830Z,248.90
2019-01-23T10:41:41.815Z,253.00
2019-01-23T10:42:41.808Z,248.20
2019-01-23T10:43:41.811Z,240.50
2019-01-23T10:44:41.783Z,245.00
2019-01-23T10:45:41.779Z,258.10
2019-01-23T10:46:41.761Z,259.90
2019-01-23T10:47:41.755Z,261.40
2019-01-23T10:48:41.753Z,266.80
2019-01-23T10:49:41.751Z,267.50
2019-01-23T10:50:41.719Z,264.60
2019-01-23T10:51:41.713Z,256.50
2019-01-23T10:52:41.705Z,262.50
2019-01-23T10:53:41.701Z,251.10
2019-01-23T10:54:41.687Z,250.60
2019-01-23T10:55:41.681Z,257.30
2019-01-23T10:56:41.666Z,253.80
2019-01-23T10:57:41.648Z,248.10
2019-01-23T10:58:41.663Z,253.60
2019-01-23T10:59:41.627Z,245.90
2019-01-23T11:00:41.618Z,239.10
2019-01-23T11:01:41.617Z,244.60
2019-01-23T11:02:41.600Z,236.90
2019-01-23T11:03:41.586Z,238.20
2019-01-23T11:04:41.726Z,230.40
2019-01-23T11:05:41.579Z,237.20
2019-01-23T11:06:41.556Z,250.90
2019-01-23T11:07:41.553Z,232.90
2019-01-23T11:08:41.597Z,234.30
2019-01-23T11:09:41.557Z,241.50
2019-01-23T11:10:41.520Z,242.50
2019-01-23T11:11:41.533Z,243.10
2019-01-23T11:12:41.499Z,237.40
2019-01-23T11:13:41.502Z,243.50
2019-01-23T11:14:41.578Z,253.10
2019-01-23T11:15:41.504Z,248.70
2019-01-23T11:16:41.464Z,246.20
2019-01-23T11:17:41.458Z,238.30
2019-01-23T11:18:41.453Z,247.50
2019-01-23T11:19:41.443Z,243.20
2019-01-23T11:20:41.413Z,245.80
2019-01-23T11:21:41.402Z,255.10
2019-01-23T11:22:44.318Z,248.20
2019-01-23T11:23:41.387Z,248.70
2019-01-23T11:24:44.953Z,242.20
2019-01-23T11:25:41.398Z,247.70
2019-01-23T11:26:41.361Z,249.80
2019-01-23T11:27:41.355Z,247.00
2019-01-23T11:28:41.339Z,245.10
2019-01-23T11:29:41.341Z,241.30
2019-01-23T11:30:41.318Z,254.30
2019-01-23T11:31:41.306Z,247.90
2019-01-23T11:32:41.296Z,256.80
2019-01-23T11:33:41.282Z,245.00
2019-01-23T11:34:41.283Z,246.20
2019-01-23T11:35:41.263Z,250.00
2019-01-23T11:36:41.249Z,261.80
2019-01-23T11:37:41.240Z,245.00
2019-01-23T11:38:41.230Z,250.00
2019-01-23T11:39:41.234Z,246.40
2019-01-23T11:40:41.210Z,245.50
2019-01-23T11:41:41.209Z,246.40
2019-01-23T11:42:41.188Z,253.80
2019-01-23T11:43:41.215Z,243.90
2019-01-23T11:44:41.229Z,242.00
2019-01-23T11:45:41.158Z,241.50
2019-01-23T11:46:41.150Z,251.90
2019-01-23T11:47:41.138Z,245.40
2019-01-23T11:48:41.135Z,243.60
2019-01-23T11:49:41.134Z,232.30
2019-01-23T11:50:41.109Z,235.60
2019-01-23T11:51:41.099Z,238.10
2019-01-23T11:52:41.123Z,243.70
2019-01-23T11:53:41.076Z,233.10
2019-01-23T11:54:41.080Z,242.10
2019-01-23T11:55:41.078Z,237.10
2019-01-23T11:56:41.046Z,245.90
2019-01-23T11:57:41.142Z,240.70
2019-01-23T11:58:41.032Z,249.30
2019-01-23T11:59:41.033Z,242.20
2019-01-23T12:00:41.006Z,238.30
2019-01-23T12:01:41.017Z,245.00
2019-01-23T12:02:40.986Z,242.10
2019-01-23T12:03:40.974Z,236.40
2019-01-23T12:04:41.000Z,240.90
2019-01-23T12:05:40.961Z,238.00
2019-01-23T12:06:40.946Z,250.00
2019-01-23T12:07:40.955Z,234.80
2019-01-23T12:08:40.922Z,229.10
2019-01-23T12:09:40.926Z,238.10
2019-01-23T12:10:40.910Z,238.10
2019-01-23T12:11:40.903Z,243.50
2019-01-23T12:12:40.890Z,229.00
2019-01-23T12:13:40.896Z,228.90
2019-01-23T12:14:40.889Z,229.30
2019-01-23T12:15:41.185Z,237.20
2019-01-23T12:16:40.852Z,246.50
2019-01-23T12:17:40.847Z,239.40
2019-01-23T12:18:40.828Z,244.50
2019-01-23T12:19:40.842Z,245.40
2019-01-23T12:20:40.803Z,250.00
2019-01-23T12:21:40.799Z,242.90
2019-01-23T12:22:40.784Z,241.00
2019-01-23T12:23:40.771Z,250.00
2019-01-23T12:24:40.759Z,241.90
2019-01-23T12:25:40.783Z,241.20
2019-01-23T12:26:40.737Z,226.80
2019-01-23T12:27:40.728Z,244.90
2019-01-23T12:28:40.718Z,243.30